sensor_id;sensor_type;location;lat;lon;timestamp;temperature;humidity
11599;DHT22;5855;48.840;9.188;2022-08-01T00:01:49;22.10;90.10
11599;DHT22;5855;48.840;9.188;2022-08-01T00:04:16;22.10;90.20
11599;DHT22;5855;48.840;9.188;2022-08-01T00:06:42;22.20;90.40
11599;DHT22;5855;48.840;9.188;2022-08-01T00:09:11;22.10;90.60
11599;DHT22;5855;48.840;9.188;2022-08-01T00:11:37;22.00;91.00
11599;DHT22;5855;48.840;9.188;2022-08-01T00:14:04;21.90;91.30
11599;DHT22;5855;48.840;9.188;2022-08-01T00:16:31;21.90;91.50
11599;DHT22;5855;48.840;9.188;2022-08-01T00:18:58;21.90;91.80
11599;DHT22;5855;48.840;9.188;2022-08-01T00:21:25;21.90;92.30
11599;DHT22;5855;48.840;9.188;2022-08-01T00:23:52;21.80;92.30
11599;DHT22;5855;48.840;9.188;2022-08-01T00:26:20;21.80;92.70
11599;DHT22;5855;48.840;9.188;2022-08-01T00:28:47;21.70;93.00
11599;DHT22;5855;48.840;9.188;2022-08-01T00:31:14;21.70;93.20
11599;DHT22;5855;48.840;9.188;2022-08-01T00:33:40;21.60;93.50
11599;DHT22;5855;48.840;9.188;2022-08-01T00:36:07;21.60;93.90
11599;DHT22;5855;48.840;9.188;2022-08-01T00:38:34;21.60;94.20
11599;DHT22;5855;48.840;9.188;2022-08-01T00:41:01;21.50;94.60
11599;DHT22;5855;48.840;9.188;2022-08-01T00:43:29;21.50;94.90
11599;DHT22;5855;48.840;9.188;2022-08-01T00:45:56;21.50;95.20
11599;DHT22;5855;48.840;9.188;2022-08-01T00:48:23;21.50;95.70
11599;DHT22;5855;48.840;9.188;2022-08-01T00:50:50;21.50;96.10
11599;DHT22;5855;48.840;9.188;2022-08-01T00:53:17;21.50;96.30
11599;DHT22;5855;48.840;9.188;2022-08-01T00:55:44;21.50;96.80
11599;DHT22;5855;48.840;9.188;2022-08-01T00:58:11;21.60;96.70
11599;DHT22;5855;48.840;9.188;2022-08-01T01:00:39;21.50;97.00
11599;DHT22;5855;48.840;9.188;2022-08-01T01:03:06;21.50;97.20
11599;DHT22;5855;48.840;9.188;2022-08-01T01:05:38;21.50;97.60
11599;DHT22;5855;48.840;9.188;2022-08-01T01:08:13;21.40;98.00
11599;DHT22;5855;48.840;9.188;2022-08-01T01:10:45;21.30;98.40
11599;DHT22;5855;48.840;9.188;2022-08-01T01:13:18;21.40;98.80
11599;DHT22;5855;48.840;9.188;2022-08-01T01:15:52;21.40;99.00
11599;DHT22;5855;48.840;9.188;2022-08-01T01:18:25;21.50;99.10
11599;DHT22;5855;48.840;9.188;2022-08-01T01:21:00;21.50;99.30
11599;DHT22;5855;48.840;9.188;2022-08-01T01:23:40;21.50;99.70
11599;DHT22;5855;48.840;9.188;2022-08-01T01:26:31;21.40;99.90
11599;DHT22;5855;48.840;9.188;2022-08-01T01:29:09;21.40;99.90
11599;DHT22;5855;48.840;9.188;2022-08-01T01:31:43;21.30;99.90
11599;DHT22;5855;48.840;9.188;2022-08-01T01:34:12;21.30;99.90
11599;DHT22;5855;48.840;9.188;2022-08-01T01:36:40;21.30;99.90
11599;DHT22;5855;48.840;9.188;2022-08-01T01:39:08;21.30;99.90
11599;DHT22;5855;48.840;9.188;2022-08-01T01:41:36;21.30;99.90
11599;DHT22;5855;48.840;9.188;2022-08-01T01:44:05;21.30;99.90
11599;DHT22;5855;48.840;9.188;2022-08-01T01:46:33;21.20;99.90
11599;DHT22;5855;48.840;9.188;2022-08-01T01:49:01;21.20;99.90
11599;DHT22;5855;48.840;9.188;2022-08-01T01:51:29;21.20;99.90
11599;DHT22;5855;48.840;9.188;2022-08-01T01:53:57;21.20;99.90
11599;DHT22;5855;48.840;9.188;2022-08-01T01:56:27;21.20;99.90
11599;DHT22;5855;48.840;9.188;2022-08-01T01:58:59;21.10;99.90
11599;DHT22;5855;48.840;9.188;2022-08-01T02:01:31;21.20;99.90
11599;DHT22;5855;48.840;9.188;2022-08-01T02:04:00;21.10;99.90
11599;DHT22;5855;48.840;9.188;2022-08-01T02:06:29;21.10;99.90
11599;DHT22;5855;48.840;9.188;2022-08-01T02:08:57;21.10;99.90
11599;DHT22;5855;48.840;9.188;2022-08-01T02:11:25;21.10;99.90
11599;DHT22;5855;48.840;9.188;2022-08-01T02:13:53;20.90;99.90
11599;DHT22;5855;48.840;9.188;2022-08-01T02:16:25;21.00;99.90
11599;DHT22;5855;48.840;9.188;2022-08-01T02:18:54;21.00;99.90
11599;DHT22;5855;48.840;9.188;2022-08-01T02:21:25;21.00;99.90
11599;DHT22;5855;48.840;9.188;2022-08-01T02:23:54;21.00;99.90
11599;DHT22;5855;48.840;9.188;2022-08-01T02:26:22;21.00;99.90
11599;DHT22;5855;48.840;9.188;2022-08-01T02:28:53;21.00;99.90
11599;DHT22;5855;48.840;9.188;2022-08-01T02:31:22;20.90;99.90
11599;DHT22;5855;48.840;9.188;2022-08-01T02:33:55;20.80;99.90
11599;DHT22;5855;48.840;9.188;2022-08-01T02:36:26;20.90;99.90
11599;DHT22;5855;48.840;9.188;2022-08-01T02:38:55;20.90;99.90
11599;DHT22;5855;48.840;9.188;2022-08-01T02:41:25;20.90;99.90
11599;DHT22;5855;48.840;9.188;2022-08-01T02:43:58;20.80;99.90
11599;DHT22;5855;48.840;9.188;2022-08-01T02:46:30;20.80;99.90
11599;DHT22;5855;48.840;9.188;2022-08-01T02:49:02;20.80;99.90
11599;DHT22;5855;48.840;9.188;2022-08-01T02:51:30;20.70;99.90
11599;DHT22;5855;48.840;9.188;2022-08-01T02:53:59;20.60;99.90
11599;DHT22;5855;48.840;9.188;2022-08-01T02:56:27;20.60;99.90
11599;DHT22;5855;48.840;9.188;2022-08-01T02:59:02;20.60;99.90
11599;DHT22;5855;48.840;9.188;2022-08-01T03:01:31;20.60;99.90
11599;DHT22;5855;48.840;9.188;2022-08-01T03:04:00;20.60;99.90
11599;DHT22;5855;48.840;9.188;2022-08-01T03:06:27;20.50;99.90
11599;DHT22;5855;48.840;9.188;2022-08-01T03:08:55;20.50;99.90
11599;DHT22;5855;48.840;9.188;2022-08-01T03:11:24;20.50;99.90
11599;DHT22;5855;48.840;9.188;2022-08-01T03:13:53;20.50;99.90
11599;DHT22;5855;48.840;9.188;2022-08-01T03:16:23;20.50;99.90
11599;DHT22;5855;48.840;9.188;2022-08-01T03:18:53;20.50;99.90
11599;DHT22;5855;48.840;9.188;2022-08-01T03:21:24;20.40;99.90
11599;DHT22;5855;48.840;9.188;2022-08-01T03:23:53;20.30;99.90
11599;DHT22;5855;48.840;9.188;2022-08-01T03:26:25;20.30;99.90
11599;DHT22;5855;48.840;9.188;2022-08-01T03:28:55;20.20;99.90
11599;DHT22;5855;48.840;9.188;2022-08-01T03:31:24;20.10;99.90
11599;DHT22;5855;48.840;9.188;2022-08-01T03:33:51;20.10;99.90
11599;DHT22;5855;48.840;9.188;2022-08-01T03:36:20;20.00;99.90
11599;DHT22;5855;48.840;9.188;2022-08-01T03:38:50;20.00;99.90
11599;DHT22;5855;48.840;9.188;2022-08-01T03:41:20;20.00;99.90
11599;DHT22;5855;48.840;9.188;2022-08-01T03:43:52;19.90;99.90
11599;DHT22;5855;48.840;9.188;2022-08-01T03:46:26;19.90;99.90
11599;DHT22;5855;48.840;9.188;2022-08-01T03:48:58;19.80;99.90
11599;DHT22;5855;48.840;9.188;2022-08-01T03:51:27;19.80;99.90
11599;DHT22;5855;48.840;9.188;2022-08-01T03:53:58;19.80;99.90
11599;DHT22;5855;48.840;9.188;2022-08-01T03:56:26;19.80;99.90
11599;DHT22;5855;48.840;9.188;2022-08-01T03:58:56;19.80;99.90
11599;DHT22;5855;48.840;9.188;2022-08-01T04:01:23;19.70;99.90
11599;DHT22;5855;48.840;9.188;2022-08-01T04:03:50;19.80;99.90
11599;DHT22;5855;48.840;9.188;2022-08-01T04:06:17;19.80;99.90
11599;DHT22;5855;48.840;9.188;2022-08-01T04:08:44;19.80;99.90
11599;DHT22;5855;48.840;9.188;2022-08-01T04:11:23;19.80;99.90
11599;DHT22;5855;48.840;9.188;2022-08-01T04:13:51;19.80;99.90
11599;DHT22;5855;48.840;9.188;2022-08-01T04:16:18;19.80;99.90
11599;DHT22;5855;48.840;9.188;2022-08-01T04:18:44;19.80;99.90
11599;DHT22;5855;48.840;9.188;2022-08-01T04:21:11;19.80;99.90
11599;DHT22;5855;48.840;9.188;2022-08-01T04:23:41;19.80;99.90
11599;DHT22;5855;48.840;9.188;2022-08-01T04:26:09;19.90;99.90
11599;DHT22;5855;48.840;9.188;2022-08-01T04:28:39;19.90;99.90
11599;DHT22;5855;48.840;9.188;2022-08-01T04:31:08;20.00;99.90
11599;DHT22;5855;48.840;9.188;2022-08-01T04:33:38;20.10;99.90
11599;DHT22;5855;48.840;9.188;2022-08-01T04:36:09;20.10;99.90
11599;DHT22;5855;48.840;9.188;2022-08-01T04:38:37;20.20;99.90
11599;DHT22;5855;48.840;9.188;2022-08-01T04:41:06;20.20;99.90
11599;DHT22;5855;48.840;9.188;2022-08-01T04:43:33;20.40;99.90
11599;DHT22;5855;48.840;9.188;2022-08-01T04:46:02;20.30;99.90
11599;DHT22;5855;48.840;9.188;2022-08-01T04:48:32;20.40;99.90
11599;DHT22;5855;48.840;9.188;2022-08-01T04:50:59;20.40;99.90
11599;DHT22;5855;48.840;9.188;2022-08-01T04:53:26;20.40;99.90
11599;DHT22;5855;48.840;9.188;2022-08-01T04:55:53;20.50;99.90
11599;DHT22;5855;48.840;9.188;2022-08-01T04:58:21;20.50;99.90
11599;DHT22;5855;48.840;9.188;2022-08-01T05:00:48;20.50;99.90
11599;DHT22;5855;48.840;9.188;2022-08-01T05:03:16;20.60;99.90
11599;DHT22;5855;48.840;9.188;2022-08-01T05:05:43;20.70;99.90
11599;DHT22;5855;48.840;9.188;2022-08-01T05:08:09;20.70;99.90
11599;DHT22;5855;48.840;9.188;2022-08-01T05:10:36;20.80;99.90
11599;DHT22;5855;48.840;9.188;2022-08-01T05:13:03;20.80;99.90
11599;DHT22;5855;48.840;9.188;2022-08-01T05:15:32;20.90;99.90
11599;DHT22;5855;48.840;9.188;2022-08-01T05:17:58;21.00;99.90
11599;DHT22;5855;48.840;9.188;2022-08-01T05:20:28;21.10;99.90
11599;DHT22;5855;48.840;9.188;2022-08-01T05:22:55;21.30;99.90
11599;DHT22;5855;48.840;9.188;2022-08-01T05:25:22;21.30;99.90
11599;DHT22;5855;48.840;9.188;2022-08-01T05:27:49;21.40;99.90
11599;DHT22;5855;48.840;9.188;2022-08-01T05:30:16;21.50;99.90
11599;DHT22;5855;48.840;9.188;2022-08-01T05:32:43;21.50;99.90
11599;DHT22;5855;48.840;9.188;2022-08-01T05:35:10;21.60;99.90
11599;DHT22;5855;48.840;9.188;2022-08-01T05:37:39;21.70;99.90
11599;DHT22;5855;48.840;9.188;2022-08-01T05:40:06;21.80;99.90
11599;DHT22;5855;48.840;9.188;2022-08-01T05:42:33;21.80;99.90
11599;DHT22;5855;48.840;9.188;2022-08-01T05:45:00;21.90;99.90
11599;DHT22;5855;48.840;9.188;2022-08-01T05:47:27;22.00;99.90
11599;DHT22;5855;48.840;9.188;2022-08-01T05:49:54;22.00;99.90
11599;DHT22;5855;48.840;9.188;2022-08-01T05:52:21;22.00;99.90
11599;DHT22;5855;48.840;9.188;2022-08-01T05:54:49;22.10;99.90
11599;DHT22;5855;48.840;9.188;2022-08-01T05:57:16;22.30;99.90
11599;DHT22;5855;48.840;9.188;2022-08-01T05:59:43;22.40;99.90
11599;DHT22;5855;48.840;9.188;2022-08-01T06:02:09;22.30;99.90
11599;DHT22;5855;48.840;9.188;2022-08-01T06:04:36;22.50;99.90
11599;DHT22;5855;48.840;9.188;2022-08-01T06:07:03;22.50;99.90
11599;DHT22;5855;48.840;9.188;2022-08-01T06:09:30;22.60;99.90
11599;DHT22;5855;48.840;9.188;2022-08-01T06:11:58;22.60;99.90
11599;DHT22;5855;48.840;9.188;2022-08-01T06:14:25;22.60;99.90
11599;DHT22;5855;48.840;9.188;2022-08-01T06:16:52;22.70;99.90
11599;DHT22;5855;48.840;9.188;2022-08-01T06:19:19;22.70;99.90
11599;DHT22;5855;48.840;9.188;2022-08-01T06:21:46;22.80;99.90
11599;DHT22;5855;48.840;9.188;2022-08-01T06:24:12;22.80;99.90
11599;DHT22;5855;48.840;9.188;2022-08-01T06:26:39;22.80;99.90
11599;DHT22;5855;48.840;9.188;2022-08-01T06:29:08;22.90;99.90
11599;DHT22;5855;48.840;9.188;2022-08-01T06:31:34;22.90;99.90
11599;DHT22;5855;48.840;9.188;2022-08-01T06:34:01;22.90;99.90
11599;DHT22;5855;48.840;9.188;2022-08-01T06:36:28;22.90;99.90
11599;DHT22;5855;48.840;9.188;2022-08-01T06:38:55;23.10;99.90
11599;DHT22;5855;48.840;9.188;2022-08-01T06:41:22;23.20;99.90
11599;DHT22;5855;48.840;9.188;2022-08-01T06:43:49;23.40;99.90
11599;DHT22;5855;48.840;9.188;2022-08-01T06:46:17;23.50;99.90
11599;DHT22;5855;48.840;9.188;2022-08-01T06:48:44;23.70;99.90
11599;DHT22;5855;48.840;9.188;2022-08-01T06:51:11;23.70;99.90
11599;DHT22;5855;48.840;9.188;2022-08-01T06:53:40;23.90;99.90
11599;DHT22;5855;48.840;9.188;2022-08-01T06:56:07;24.00;99.90
11599;DHT22;5855;48.840;9.188;2022-08-01T06:58:35;24.20;99.90
11599;DHT22;5855;48.840;9.188;2022-08-01T07:01:02;24.20;99.90
11599;DHT22;5855;48.840;9.188;2022-08-01T07:03:33;24.20;99.90
11599;DHT22;5855;48.840;9.188;2022-08-01T07:06:00;24.20;99.90
11599;DHT22;5855;48.840;9.188;2022-08-01T07:08:27;24.40;99.90
11599;DHT22;5855;48.840;9.188;2022-08-01T07:10:54;24.50;99.90
11599;DHT22;5855;48.840;9.188;2022-08-01T07:13:21;24.60;99.90
11599;DHT22;5855;48.840;9.188;2022-08-01T07:15:50;24.80;99.90
11599;DHT22;5855;48.840;9.188;2022-08-01T07:18:18;25.00;99.90
11599;DHT22;5855;48.840;9.188;2022-08-01T07:20:46;25.10;99.90
11599;DHT22;5855;48.840;9.188;2022-08-01T07:23:13;25.20;99.90
11599;DHT22;5855;48.840;9.188;2022-08-01T07:25:40;25.10;99.90
11599;DHT22;5855;48.840;9.188;2022-08-01T07:28:07;25.00;99.90
11599;DHT22;5855;48.840;9.188;2022-08-01T07:30:34;25.10;99.90
11599;DHT22;5855;48.840;9.188;2022-08-01T07:33:01;25.20;99.90
11599;DHT22;5855;48.840;9.188;2022-08-01T07:35:28;25.30;99.90
11599;DHT22;5855;48.840;9.188;2022-08-01T07:37:56;25.40;99.90
11599;DHT22;5855;48.840;9.188;2022-08-01T07:40:23;25.20;99.90
11599;DHT22;5855;48.840;9.188;2022-08-01T07:42:50;25.20;99.90
11599;DHT22;5855;48.840;9.188;2022-08-01T07:45:17;25.30;99.90
11599;DHT22;5855;48.840;9.188;2022-08-01T07:47:44;25.30;99.90
11599;DHT22;5855;48.840;9.188;2022-08-01T07:50:12;25.30;99.90
11599;DHT22;5855;48.840;9.188;2022-08-01T07:52:39;25.50;99.90
11599;DHT22;5855;48.840;9.188;2022-08-01T07:55:08;25.80;99.90
11599;DHT22;5855;48.840;9.188;2022-08-01T07:57:35;26.10;99.90
11599;DHT22;5855;48.840;9.188;2022-08-01T08:00:03;26.20;99.90
11599;DHT22;5855;48.840;9.188;2022-08-01T08:02:31;26.30;99.90
11599;DHT22;5855;48.840;9.188;2022-08-01T08:04:58;26.50;99.90
11599;DHT22;5855;48.840;9.188;2022-08-01T08:07:24;26.60;99.90
11599;DHT22;5855;48.840;9.188;2022-08-01T08:09:51;26.80;99.90
11599;DHT22;5855;48.840;9.188;2022-08-01T08:12:19;26.70;99.90
11599;DHT22;5855;48.840;9.188;2022-08-01T08:14:47;26.70;99.90
11599;DHT22;5855;48.840;9.188;2022-08-01T08:17:14;26.70;99.90
11599;DHT22;5855;48.840;9.188;2022-08-01T08:19:40;26.90;99.90
11599;DHT22;5855;48.840;9.188;2022-08-01T08:22:08;27.10;99.90
11599;DHT22;5855;48.840;9.188;2022-08-01T08:24:35;27.20;99.90
11599;DHT22;5855;48.840;9.188;2022-08-01T08:27:02;27.30;99.90
11599;DHT22;5855;48.840;9.188;2022-08-01T08:29:31;27.20;99.90
11599;DHT22;5855;48.840;9.188;2022-08-01T08:31:59;27.40;99.90
11599;DHT22;5855;48.840;9.188;2022-08-01T08:34:27;27.50;99.90
11599;DHT22;5855;48.840;9.188;2022-08-01T08:36:55;27.70;99.90
11599;DHT22;5855;48.840;9.188;2022-08-01T08:39:23;28.00;99.90
11599;DHT22;5855;48.840;9.188;2022-08-01T08:41:50;28.20;99.90
11599;DHT22;5855;48.840;9.188;2022-08-01T08:44:17;28.60;99.20
11599;DHT22;5855;48.840;9.188;2022-08-01T08:46:48;28.70;98.90
11599;DHT22;5855;48.840;9.188;2022-08-01T08:49:18;28.70;98.80
11599;DHT22;5855;48.840;9.188;2022-08-01T08:51:48;28.90;98.80
11599;DHT22;5855;48.840;9.188;2022-08-01T08:54:16;29.10;98.40
11599;DHT22;5855;48.840;9.188;2022-08-01T08:56:45;29.40;97.90
11599;DHT22;5855;48.840;9.188;2022-08-01T08:59:13;29.50;97.50
11599;DHT22;5855;48.840;9.188;2022-08-01T09:01:40;29.40;97.20
11599;DHT22;5855;48.840;9.188;2022-08-01T09:04:09;29.10;97.30
11599;DHT22;5855;48.840;9.188;2022-08-01T09:06:37;29.00;97.40
11599;DHT22;5855;48.840;9.188;2022-08-01T09:09:05;29.00;97.60
11599;DHT22;5855;48.840;9.188;2022-08-01T09:11:32;28.90;97.40
11599;DHT22;5855;48.840;9.188;2022-08-01T09:14:10;28.80;97.20
11599;DHT22;5855;48.840;9.188;2022-08-01T09:16:40;28.60;97.40
11599;DHT22;5855;48.840;9.188;2022-08-01T09:19:11;28.60;97.50
11599;DHT22;5855;48.840;9.188;2022-08-01T09:21:38;28.70;97.70
11599;DHT22;5855;48.840;9.188;2022-08-01T09:24:14;28.90;97.40
11599;DHT22;5855;48.840;9.188;2022-08-01T09:26:41;29.00;97.10
11599;DHT22;5855;48.840;9.188;2022-08-01T09:29:18;29.00;97.00
11599;DHT22;5855;48.840;9.188;2022-08-01T09:31:46;28.30;97.50
11599;DHT22;5855;48.840;9.188;2022-08-01T09:34:15;28.50;97.60
11599;DHT22;5855;48.840;9.188;2022-08-01T09:36:49;28.60;97.50
11599;DHT22;5855;48.840;9.188;2022-08-01T09:39:22;28.60;97.60
11599;DHT22;5855;48.840;9.188;2022-08-01T09:41:50;28.70;97.50
11599;DHT22;5855;48.840;9.188;2022-08-01T09:44:17;28.80;97.60
11599;DHT22;5855;48.840;9.188;2022-08-01T09:46:50;29.00;97.20
11599;DHT22;5855;48.840;9.188;2022-08-01T09:49:27;29.10;97.50
11599;DHT22;5855;48.840;9.188;2022-08-01T09:51:55;29.20;96.60
11599;DHT22;5855;48.840;9.188;2022-08-01T09:54:31;29.40;96.40
11599;DHT22;5855;48.840;9.188;2022-08-01T09:57:12;29.60;95.90
11599;DHT22;5855;48.840;9.188;2022-08-01T09:59:40;29.50;95.80
11599;DHT22;5855;48.840;9.188;2022-08-01T10:02:09;30.00;95.80
11599;DHT22;5855;48.840;9.188;2022-08-01T10:04:46;30.40;94.50
11599;DHT22;5855;48.840;9.188;2022-08-01T10:07:13;29.90;94.70
11599;DHT22;5855;48.840;9.188;2022-08-01T10:09:42;30.00;94.80
11599;DHT22;5855;48.840;9.188;2022-08-01T10:12:11;30.20;94.50
11599;DHT22;5855;48.840;9.188;2022-08-01T10:14:39;30.60;94.40
11599;DHT22;5855;48.840;9.188;2022-08-01T10:17:07;30.50;93.50
11599;DHT22;5855;48.840;9.188;2022-08-01T10:19:36;30.60;93.40
11599;DHT22;5855;48.840;9.188;2022-08-01T10:22:07;30.90;92.90
11599;DHT22;5855;48.840;9.188;2022-08-01T10:24:36;31.00;92.70
11599;DHT22;5855;48.840;9.188;2022-08-01T10:27:06;30.70;92.60
11599;DHT22;5855;48.840;9.188;2022-08-01T10:29:37;30.70;92.70
11599;DHT22;5855;48.840;9.188;2022-08-01T10:32:06;30.80;92.70
11599;DHT22;5855;48.840;9.188;2022-08-01T10:34:35;30.90;92.20
11599;DHT22;5855;48.840;9.188;2022-08-01T10:37:04;31.00;91.90
11599;DHT22;5855;48.840;9.188;2022-08-01T10:39:33;30.70;91.60
11599;DHT22;5855;48.840;9.188;2022-08-01T10:42:01;30.70;92.10
11599;DHT22;5855;48.840;9.188;2022-08-01T10:44:29;31.10;91.70
11599;DHT22;5855;48.840;9.188;2022-08-01T10:47:02;31.60;90.70
11599;DHT22;5855;48.840;9.188;2022-08-01T10:49:30;32.20;90.00
11599;DHT22;5855;48.840;9.188;2022-08-01T10:51:58;32.70;87.30
11599;DHT22;5855;48.840;9.188;2022-08-01T10:54:27;33.00;85.40
11599;DHT22;5855;48.840;9.188;2022-08-01T10:56:54;32.80;83.50
11599;DHT22;5855;48.840;9.188;2022-08-01T10:59:27;32.30;84.40
11599;DHT22;5855;48.840;9.188;2022-08-01T11:01:57;32.20;84.90
11599;DHT22;5855;48.840;9.188;2022-08-01T11:04:45;32.30;84.90
11599;DHT22;5855;48.840;9.188;2022-08-01T11:07:17;32.60;83.40
11599;DHT22;5855;48.840;9.188;2022-08-01T11:09:58;32.90;83.20
11599;DHT22;5855;48.840;9.188;2022-08-01T11:12:38;33.10;81.50
11599;DHT22;5855;48.840;9.188;2022-08-01T11:15:32;33.80;79.60
11599;DHT22;5855;48.840;9.188;2022-08-01T11:18:01;33.90;78.00
11599;DHT22;5855;48.840;9.188;2022-08-01T11:20:30;33.80;78.40
11599;DHT22;5855;48.840;9.188;2022-08-01T11:23:28;34.40;76.40
11599;DHT22;5855;48.840;9.188;2022-08-01T11:26:23;34.40;73.60
11599;DHT22;5855;48.840;9.188;2022-08-01T11:29:13;34.40;73.40
11599;DHT22;5855;48.840;9.188;2022-08-01T11:31:40;34.90;72.40
11599;DHT22;5855;48.840;9.188;2022-08-01T11:34:07;35.40;69.90
11599;DHT22;5855;48.840;9.188;2022-08-01T11:36:34;35.60;68.50
11599;DHT22;5855;48.840;9.188;2022-08-01T11:39:16;36.00;68.40
11599;DHT22;5855;48.840;9.188;2022-08-01T11:41:45;35.80;66.50
11599;DHT22;5855;48.840;9.188;2022-08-01T11:44:18;35.80;66.70
11599;DHT22;5855;48.840;9.188;2022-08-01T11:46:52;35.70;66.60
11599;DHT22;5855;48.840;9.188;2022-08-01T11:52:16;36.10;63.90
11599;DHT22;5855;48.840;9.188;2022-08-01T11:54:45;35.60;65.10
11599;DHT22;5855;48.840;9.188;2022-08-01T11:57:16;34.90;65.30
11599;DHT22;5855;48.840;9.188;2022-08-01T11:59:45;34.20;66.70
11599;DHT22;5855;48.840;9.188;2022-08-01T12:02:18;34.40;66.70
11599;DHT22;5855;48.840;9.188;2022-08-01T12:04:47;34.60;65.50
11599;DHT22;5855;48.840;9.188;2022-08-01T12:07:14;34.60;65.40
11599;DHT22;5855;48.840;9.188;2022-08-01T12:09:42;35.40;63.50
11599;DHT22;5855;48.840;9.188;2022-08-01T12:12:09;36.60;62.40
11599;DHT22;5855;48.840;9.188;2022-08-01T12:14:38;37.90;59.60
11599;DHT22;5855;48.840;9.188;2022-08-01T12:17:05;38.90;55.80
11599;DHT22;5855;48.840;9.188;2022-08-01T12:19:32;38.50;54.30
11599;DHT22;5855;48.840;9.188;2022-08-01T12:22:06;38.40;54.50
11599;DHT22;5855;48.840;9.188;2022-08-01T12:24:33;38.70;54.50
11599;DHT22;5855;48.840;9.188;2022-08-01T12:27:00;39.50;52.90
11599;DHT22;5855;48.840;9.188;2022-08-01T12:29:32;40.40;51.00
11599;DHT22;5855;48.840;9.188;2022-08-01T12:32:01;40.40;49.50
11599;DHT22;5855;48.840;9.188;2022-08-01T12:34:29;41.30;47.90
11599;DHT22;5855;48.840;9.188;2022-08-01T12:36:57;41.50;46.40
11599;DHT22;5855;48.840;9.188;2022-08-01T12:39:31;41.70;45.20
11599;DHT22;5855;48.840;9.188;2022-08-01T12:41:58;42.10;44.10
11599;DHT22;5855;48.840;9.188;2022-08-01T12:44:27;42.40;42.70
11599;DHT22;5855;48.840;9.188;2022-08-01T12:46:55;41.80;42.30
11599;DHT22;5855;48.840;9.188;2022-08-01T12:49:24;41.10;42.70
11599;DHT22;5855;48.840;9.188;2022-08-01T12:51:51;41.30;41.90
11599;DHT22;5855;48.840;9.188;2022-08-01T12:54:18;41.90;41.40
11599;DHT22;5855;48.840;9.188;2022-08-01T12:56:45;42.40;40.30
11599;DHT22;5855;48.840;9.188;2022-08-01T12:59:22;43.00;39.10
11599;DHT22;5855;48.840;9.188;2022-08-01T13:01:51;44.00;37.60
11599;DHT22;5855;48.840;9.188;2022-08-01T13:04:18;43.90;36.40
11599;DHT22;5855;48.840;9.188;2022-08-01T13:06:47;42.60;36.50
11599;DHT22;5855;48.840;9.188;2022-08-01T13:09:14;41.70;38.00
11599;DHT22;5855;48.840;9.188;2022-08-01T13:11:41;41.20;39.00
11599;DHT22;5855;48.840;9.188;2022-08-01T13:14:08;40.60;39.60
11599;DHT22;5855;48.840;9.188;2022-08-01T13:16:46;41.10;39.80
11599;DHT22;5855;48.840;9.188;2022-08-01T13:19:13;41.90;38.40
11599;DHT22;5855;48.840;9.188;2022-08-01T13:21:54;41.30;38.00
11599;DHT22;5855;48.840;9.188;2022-08-01T13:24:26;40.40;39.10
11599;DHT22;5855;48.840;9.188;2022-08-01T13:26:55;40.50;39.20
11599;DHT22;5855;48.840;9.188;2022-08-01T13:29:33;39.60;39.00
11599;DHT22;5855;48.840;9.188;2022-08-01T13:32:02;38.90;40.50
11599;DHT22;5855;48.840;9.188;2022-08-01T13:34:38;38.90;41.00
11599;DHT22;5855;48.840;9.188;2022-08-01T13:37:06;40.00;40.40
11599;DHT22;5855;48.840;9.188;2022-08-01T13:39:33;40.60;39.30
11599;DHT22;5855;48.840;9.188;2022-08-01T13:42:13;40.40;39.30
11599;DHT22;5855;48.840;9.188;2022-08-01T13:44:40;40.60;39.80
11599;DHT22;5855;48.840;9.188;2022-08-01T13:47:07;40.40;39.30
11599;DHT22;5855;48.840;9.188;2022-08-01T13:49:34;40.20;39.30
11599;DHT22;5855;48.840;9.188;2022-08-01T13:52:02;39.90;39.30
11599;DHT22;5855;48.840;9.188;2022-08-01T13:54:33;39.20;40.40
11599;DHT22;5855;48.840;9.188;2022-08-01T13:57:00;38.40;41.30
11599;DHT22;5855;48.840;9.188;2022-08-01T13:59:26;38.00;42.40
11599;DHT22;5855;48.840;9.188;2022-08-01T14:01:53;36.80;43.60
11599;DHT22;5855;48.840;9.188;2022-08-01T14:04:20;36.00;44.80
11599;DHT22;5855;48.840;9.188;2022-08-01T14:06:47;35.50;45.90
11599;DHT22;5855;48.840;9.188;2022-08-01T14:09:14;35.30;46.30
11599;DHT22;5855;48.840;9.188;2022-08-01T14:11:43;35.00;47.30
11599;DHT22;5855;48.840;9.188;2022-08-01T14:14:10;34.80;48.10
11599;DHT22;5855;48.840;9.188;2022-08-01T14:16:37;35.10;48.00
11599;DHT22;5855;48.840;9.188;2022-08-01T14:19:05;36.90;46.10
11599;DHT22;5855;48.840;9.188;2022-08-01T14:21:32;38.20;43.50
11599;DHT22;5855;48.840;9.188;2022-08-01T14:23:58;38.40;43.10
11599;DHT22;5855;48.840;9.188;2022-08-01T14:26:25;39.50;42.20
11599;DHT22;5855;48.840;9.188;2022-08-01T14:28:53;40.30;39.50
11599;DHT22;5855;48.840;9.188;2022-08-01T14:31:20;40.10;39.50
11599;DHT22;5855;48.840;9.188;2022-08-01T14:33:47;39.40;40.20
11599;DHT22;5855;48.840;9.188;2022-08-01T14:36:14;38.50;41.60
11599;DHT22;5855;48.840;9.188;2022-08-01T14:38:41;38.10;42.20
11599;DHT22;5855;48.840;9.188;2022-08-01T14:41:08;37.80;42.30
11599;DHT22;5855;48.840;9.188;2022-08-01T14:43:35;38.00;42.30
11599;DHT22;5855;48.840;9.188;2022-08-01T14:46:03;38.30;41.70
11599;DHT22;5855;48.840;9.188;2022-08-01T14:48:30;38.00;41.50
11599;DHT22;5855;48.840;9.188;2022-08-01T14:50:57;38.00;42.40
11599;DHT22;5855;48.840;9.188;2022-08-01T14:53:24;38.60;41.80
11599;DHT22;5855;48.840;9.188;2022-08-01T14:55:51;39.80;40.90
11599;DHT22;5855;48.840;9.188;2022-08-01T14:58:18;39.80;39.70
11599;DHT22;5855;48.840;9.188;2022-08-01T15:00:45;39.30;39.70
11599;DHT22;5855;48.840;9.188;2022-08-01T15:03:13;38.70;40.40
11599;DHT22;5855;48.840;9.188;2022-08-01T15:05:40;38.30;41.30
11599;DHT22;5855;48.840;9.188;2022-08-01T15:08:07;37.80;42.10
11599;DHT22;5855;48.840;9.188;2022-08-01T15:10:34;37.30;42.00
11599;DHT22;5855;48.840;9.188;2022-08-01T15:13:00;36.40;43.10
11599;DHT22;5855;48.840;9.188;2022-08-01T15:15:27;35.80;44.50
11599;DHT22;5855;48.840;9.188;2022-08-01T15:17:54;35.50;44.80
11599;DHT22;5855;48.840;9.188;2022-08-01T15:20:23;36.00;45.20
11599;DHT22;5855;48.840;9.188;2022-08-01T15:22:52;37.00;43.00
11599;DHT22;5855;48.840;9.188;2022-08-01T15:25:19;38.10;42.20
11599;DHT22;5855;48.840;9.188;2022-08-01T15:27:46;38.90;40.60
11599;DHT22;5855;48.840;9.188;2022-08-01T15:30:13;39.50;39.50
11599;DHT22;5855;48.840;9.188;2022-08-01T15:32:40;40.20;38.40
11599;DHT22;5855;48.840;9.188;2022-08-01T15:35:07;40.50;37.50
11599;DHT22;5855;48.840;9.188;2022-08-01T15:37:36;39.60;38.10
11599;DHT22;5855;48.840;9.188;2022-08-01T15:40:04;38.30;39.60
11599;DHT22;5855;48.840;9.188;2022-08-01T15:42:31;36.90;41.50
11599;DHT22;5855;48.840;9.188;2022-08-01T15:44:58;36.20;42.70
11599;DHT22;5855;48.840;9.188;2022-08-01T15:47:25;35.50;43.80
11599;DHT22;5855;48.840;9.188;2022-08-01T15:49:52;35.00;44.80
11599;DHT22;5855;48.840;9.188;2022-08-01T15:52:21;34.70;45.80
11599;DHT22;5855;48.840;9.188;2022-08-01T15:54:49;34.30;46.00
11599;DHT22;5855;48.840;9.188;2022-08-01T15:57:16;34.00;46.40
11599;DHT22;5855;48.840;9.188;2022-08-01T15:59:43;33.40;47.60